sensor_id;sensor_type;location;lat;lon;timestamp;P1;durP1;ratioP1;P2;durP2;ratioP2
7687;SDS011;30781;48.154;11.554;2022-08-07T00:01:19;15.40;;;14.10;;
7687;SDS011;30781;48.154;11.554;2022-08-07T00:03:48;14.63;;;13.40;;
7687;SDS011;30781;48.154;11.554;2022-08-07T00:06:15;14.60;;;13.30;;
7687;SDS011;30781;48.154;11.554;2022-08-07T00:08:43;12.77;;;11.57;;
7687;SDS011;30781;48.154;11.554;2022-08-07T00:11:11;12.33;;;11.23;;
7687;SDS011;30781;48.154;11.554;2022-08-07T00:13:38;13.50;;;12.20;;
7687;SDS011;30781;48.154;11.554;2022-08-07T00:16:10;14.07;;;12.73;;
7687;SDS011;30781;48.154;11.554;2022-08-07T00:18:38;12.70;;;11.60;;
7687;SDS011;30781;48.154;11.554;2022-08-07T00:21:06;12.07;;;11.07;;
7687;SDS011;30781;48.154;11.554;2022-08-07T00:23:36;13.97;;;12.50;;
7687;SDS011;30781;48.154;11.554;2022-08-07T00:26:05;11.40;;;10.20;;
7687;SDS011;30781;48.154;11.554;2022-08-07T00:28:34;11.33;;;10.33;;
7687;SDS011;30781;48.154;11.554;2022-08-07T00:31:03;11.03;;;10.03;;
7687;SDS011;30781;48.154;11.554;2022-08-07T00:33:35;10.40;;;9.40;;
7687;SDS011;30781;48.154;11.554;2022-08-07T00:36:04;10.20;;;9.30;;
7687;SDS011;30781;48.154;11.554;2022-08-07T00:38:33;11.20;;;9.63;;
7687;SDS011;30781;48.154;11.554;2022-08-07T00:41:02;10.03;;;9.13;;
7687;SDS011;30781;48.154;11.554;2022-08-07T00:43:30;9.50;;;8.60;;
7687;SDS011;30781;48.154;11.554;2022-08-07T00:45:58;9.87;;;9.00;;
7687;SDS011;30781;48.154;11.554;2022-08-07T00:48:26;8.73;;;7.97;;
7687;SDS011;30781;48.154;11.554;2022-08-07T00:50:55;9.17;;;7.60;;
7687;SDS011;30781;48.154;11.554;2022-08-07T00:53:23;8.63;;;7.80;;
7687;SDS011;30781;48.154;11.554;2022-08-07T00:55:50;8.43;;;7.43;;
7687;SDS011;30781;48.154;11.554;2022-08-07T00:58:18;8.27;;;7.60;;
7687;SDS011;30781;48.154;11.554;2022-08-07T01:00:47;9.20;;;8.33;;
7687;SDS011;30781;48.154;11.554;2022-08-07T01:03:15;7.83;;;7.13;;
7687;SDS011;30781;48.154;11.554;2022-08-07T01:05:43;7.60;;;6.57;;
7687;SDS011;30781;48.154;11.554;2022-08-07T01:08:14;8.87;;;8.17;;
7687;SDS011;30781;48.154;11.554;2022-08-07T01:10:42;7.77;;;7.10;;
7687;SDS011;30781;48.154;11.554;2022-08-07T01:13:09;7.53;;;6.93;;
7687;SDS011;30781;48.154;11.554;2022-08-07T01:15:37;8.40;;;7.70;;
7687;SDS011;30781;48.154;11.554;2022-08-07T01:18:04;7.63;;;7.03;;
7687;SDS011;30781;48.154;11.554;2022-08-07T01:20:33;7.33;;;6.73;;
7687;SDS011;30781;48.154;11.554;2022-08-07T01:23:05;8.13;;;7.33;;
7687;SDS011;30781;48.154;11.554;2022-08-07T01:25:33;7.50;;;6.90;;
7687;SDS011;30781;48.154;11.554;2022-08-07T01:28:01;7.70;;;7.00;;
7687;SDS011;30781;48.154;11.554;2022-08-07T01:30:28;6.80;;;6.20;;
7687;SDS011;30781;48.154;11.554;2022-08-07T01:32:57;6.90;;;6.30;;
7687;SDS011;30781;48.154;11.554;2022-08-07T01:35:25;7.53;;;7.00;;
7687;SDS011;30781;48.154;11.554;2022-08-07T01:37:53;7.77;;;7.17;;
7687;SDS011;30781;48.154;11.554;2022-08-07T01:40:22;7.70;;;7.03;;
7687;SDS011;30781;48.154;11.554;2022-08-07T01:42:51;8.50;;;7.80;;
7687;SDS011;30781;48.154;11.554;2022-08-07T01:45:19;9.03;;;8.23;;
7687;SDS011;30781;48.154;11.554;2022-08-07T01:47:47;8.77;;;8.07;;
7687;SDS011;30781;48.154;11.554;2022-08-07T01:50:15;9.60;;;8.70;;
7687;SDS011;30781;48.154;11.554;2022-08-07T01:52:42;9.67;;;8.73;;
7687;SDS011;30781;48.154;11.554;2022-08-07T01:55:13;10.10;;;9.20;;
7687;SDS011;30781;48.154;11.554;2022-08-07T01:57:43;9.83;;;8.07;;
7687;SDS011;30781;48.154;11.554;2022-08-07T02:00:13;9.30;;;8.40;;
7687;SDS011;30781;48.154;11.554;2022-08-07T02:02:42;9.43;;;8.57;;
7687;SDS011;30781;48.154;11.554;2022-08-07T02:05:13;9.93;;;9.00;;
7687;SDS011;30781;48.154;11.554;2022-08-07T02:07:46;8.73;;;8.03;;
7687;SDS011;30781;48.154;11.554;2022-08-07T02:10:16;9.53;;;8.80;;
7687;SDS011;30781;48.154;11.554;2022-08-07T02:12:50;10.90;;;8.40;;
7687;SDS011;30781;48.154;11.554;2022-08-07T02:15:20;9.10;;;8.30;;
7687;SDS011;30781;48.154;11.554;2022-08-07T02:17:50;8.07;;;7.37;;
7687;SDS011;30781;48.154;11.554;2022-08-07T02:20:19;8.57;;;7.87;;
7687;SDS011;30781;48.154;11.554;2022-08-07T02:22:47;8.67;;;7.73;;
7687;SDS011;30781;48.154;11.554;2022-08-07T02:25:19;7.63;;;7.07;;
7687;SDS011;30781;48.154;11.554;2022-08-07T02:27:50;7.40;;;6.80;;
7687;SDS011;30781;48.154;11.554;2022-08-07T02:30:18;8.33;;;7.53;;
7687;SDS011;30781;48.154;11.554;2022-08-07T02:32:46;8.27;;;7.50;;
7687;SDS011;30781;48.154;11.554;2022-08-07T02:35:16;7.80;;;7.17;;
7687;SDS011;30781;48.154;11.554;2022-08-07T02:37:44;8.13;;;7.47;;
7687;SDS011;30781;48.154;11.554;2022-08-07T02:40:13;7.63;;;7.13;;
7687;SDS011;30781;48.154;11.554;2022-08-07T02:42:41;10.30;;;7.93;;
7687;SDS011;30781;48.154;11.554;2022-08-07T02:45:11;9.30;;;8.50;;
7687;SDS011;30781;48.154;11.554;2022-08-07T02:47:42;9.53;;;8.60;;
7687;SDS011;30781;48.154;11.554;2022-08-07T02:50:09;8.50;;;7.80;;
7687;SDS011;30781;48.154;11.554;2022-08-07T02:52:40;8.83;;;8.03;;
7687;SDS011;30781;48.154;11.554;2022-08-07T02:55:10;9.33;;;8.73;;
7687;SDS011;30781;48.154;11.554;2022-08-07T02:57:43;9.73;;;8.80;;
7687;SDS011;30781;48.154;11.554;2022-08-07T03:00:14;10.37;;;9.47;;
7687;SDS011;30781;48.154;11.554;2022-08-07T03:02:44;9.77;;;8.97;;
7687;SDS011;30781;48.154;11.554;2022-08-07T03:05:14;10.13;;;9.13;;
7687;SDS011;30781;48.154;11.554;2022-08-07T03:07:42;9.90;;;9.00;;
7687;SDS011;30781;48.154;11.554;2022-08-07T03:10:11;9.93;;;9.03;;
7687;SDS011;30781;48.154;11.554;2022-08-07T03:12:39;9.50;;;8.80;;
7687;SDS011;30781;48.154;11.554;2022-08-07T03:15:07;10.50;;;9.50;;
7687;SDS011;30781;48.154;11.554;2022-08-07T03:17:37;9.80;;;8.80;;
7687;SDS011;30781;48.154;11.554;2022-08-07T03:20:05;9.13;;;8.17;;
7687;SDS011;30781;48.154;11.554;2022-08-07T03:22:34;9.70;;;8.87;;
7687;SDS011;30781;48.154;11.554;2022-08-07T03:25:03;9.33;;;8.50;;
7687;SDS011;30781;48.154;11.554;2022-08-07T03:27:31;9.47;;;8.57;;
7687;SDS011;30781;48.154;11.554;2022-08-07T03:29:59;9.73;;;8.87;;
7687;SDS011;30781;48.154;11.554;2022-08-07T03:32:42;10.00;;;9.13;;
7687;SDS011;30781;48.154;11.554;2022-08-07T03:35:13;9.20;;;8.07;;
7687;SDS011;30781;48.154;11.554;2022-08-07T03:37:43;9.87;;;8.10;;
7687;SDS011;30781;48.154;11.554;2022-08-07T03:40:13;9.97;;;9.17;;
7687;SDS011;30781;48.154;11.554;2022-08-07T03:42:41;9.47;;;8.77;;
7687;SDS011;30781;48.154;11.554;2022-08-07T03:45:09;8.60;;;8.00;;
7687;SDS011;30781;48.154;11.554;2022-08-07T03:47:38;9.90;;;9.10;;
7687;SDS011;30781;48.154;11.554;2022-08-07T03:50:07;9.33;;;8.63;;
7687;SDS011;30781;48.154;11.554;2022-08-07T03:52:35;8.90;;;8.27;;
7687;SDS011;30781;48.154;11.554;2022-08-07T03:55:04;9.57;;;8.77;;
7687;SDS011;30781;48.154;11.554;2022-08-07T03:57:32;9.23;;;8.40;;
7687;SDS011;30781;48.154;11.554;2022-08-07T03:59:59;8.60;;;7.97;;
7687;SDS011;30781;48.154;11.554;2022-08-07T04:02:27;9.57;;;8.73;;
7687;SDS011;30781;48.154;11.554;2022-08-07T04:04:55;9.20;;;8.57;;
7687;SDS011;30781;48.154;11.554;2022-08-07T04:07:24;9.47;;;8.60;;
7687;SDS011;30781;48.154;11.554;2022-08-07T04:09:52;8.37;;;7.77;;
7687;SDS011;30781;48.154;11.554;2022-08-07T04:12:20;9.57;;;8.63;;
7687;SDS011;30781;48.154;11.554;2022-08-07T04:14:48;8.90;;;8.10;;
7687;SDS011;30781;48.154;11.554;2022-08-07T04:17:15;8.93;;;8.20;;
7687;SDS011;30781;48.154;11.554;2022-08-07T04:19:43;8.10;;;7.60;;
7687;SDS011;30781;48.154;11.554;2022-08-07T04:22:11;8.40;;;7.77;;
7687;SDS011;30781;48.154;11.554;2022-08-07T04:24:41;10.10;;;8.50;;
7687;SDS011;30781;48.154;11.554;2022-08-07T04:27:09;8.83;;;8.07;;
7687;SDS011;30781;48.154;11.554;2022-08-07T04:29:36;8.17;;;7.47;;
7687;SDS011;30781;48.154;11.554;2022-08-07T04:32:04;8.33;;;7.73;;
7687;SDS011;30781;48.154;11.554;2022-08-07T04:34:34;9.70;;;8.80;;
7687;SDS011;30781;48.154;11.554;2022-08-07T04:37:02;8.60;;;7.90;;
7687;SDS011;30781;48.154;11.554;2022-08-07T04:39:29;8.30;;;7.70;;
7687;SDS011;30781;48.154;11.554;2022-08-07T04:41:58;8.47;;;7.73;;
7687;SDS011;30781;48.154;11.554;2022-08-07T04:44:28;8.30;;;7.63;;
7687;SDS011;30781;48.154;11.554;2022-08-07T04:46:58;8.67;;;8.00;;
7687;SDS011;30781;48.154;11.554;2022-08-07T04:49:35;7.87;;;7.27;;
7687;SDS011;30781;48.154;11.554;2022-08-07T04:52:11;7.67;;;7.07;;
7687;SDS011;30781;48.154;11.554;2022-08-07T04:54:51;8.60;;;7.90;;
7687;SDS011;30781;48.154;11.554;2022-08-07T04:57:26;7.93;;;6.90;;
7687;SDS011;30781;48.154;11.554;2022-08-07T04:59:57;7.63;;;7.03;;
7687;SDS011;30781;48.154;11.554;2022-08-07T05:02:29;7.30;;;6.60;;
7687;SDS011;30781;48.154;11.554;2022-08-07T05:05:03;7.07;;;6.50;;
7687;SDS011;30781;48.154;11.554;2022-08-07T05:07:36;7.27;;;6.57;;
7687;SDS011;30781;48.154;11.554;2022-08-07T05:10:09;7.80;;;6.87;;
7687;SDS011;30781;48.154;11.554;2022-08-07T05:12:43;6.60;;;6.20;;
7687;SDS011;30781;48.154;11.554;2022-08-07T05:15:15;5.90;;;5.40;;
7687;SDS011;30781;48.154;11.554;2022-08-07T05:17:47;6.83;;;6.23;;
7687;SDS011;30781;48.154;11.554;2022-08-07T05:20:20;6.43;;;5.70;;
7687;SDS011;30781;48.154;11.554;2022-08-07T05:22:51;6.37;;;5.47;;
7687;SDS011;30781;48.154;11.554;2022-08-07T05:25:23;5.70;;;5.33;;
7687;SDS011;30781;48.154;11.554;2022-08-07T05:27:53;6.20;;;5.80;;
7687;SDS011;30781;48.154;11.554;2022-08-07T05:30:23;5.10;;;4.80;;
7687;SDS011;30781;48.154;11.554;2022-08-07T05:32:52;5.90;;;5.03;;
7687;SDS011;30781;48.154;11.554;2022-08-07T05:35:21;5.40;;;5.10;;
7687;SDS011;30781;48.154;11.554;2022-08-07T05:37:49;5.77;;;5.13;;
7687;SDS011;30781;48.154;11.554;2022-08-07T05:40:17;4.07;;;3.87;;
7687;SDS011;30781;48.154;11.554;2022-08-07T05:42:45;4.93;;;4.63;;
7687;SDS011;30781;48.154;11.554;2022-08-07T05:45:15;4.70;;;4.40;;
7687;SDS011;30781;48.154;11.554;2022-08-07T05:47:43;4.07;;;3.87;;
7687;SDS011;30781;48.154;11.554;2022-08-07T05:50:10;4.60;;;4.30;;
7687;SDS011;30781;48.154;11.554;2022-08-07T05:52:39;4.93;;;4.70;;
7687;SDS011;30781;48.154;11.554;2022-08-07T05:55:07;4.40;;;4.00;;
7687;SDS011;30781;48.154;11.554;2022-08-07T05:57:35;6.13;;;4.43;;
7687;SDS011;30781;48.154;11.554;2022-08-07T06:00:05;4.47;;;4.17;;
7687;SDS011;30781;48.154;11.554;2022-08-07T06:02:35;4.47;;;4.17;;
7687;SDS011;30781;48.154;11.554;2022-08-07T06:05:04;4.60;;;4.23;;
7687;SDS011;30781;48.154;11.554;2022-08-07T06:07:34;7.03;;;4.07;;
7687;SDS011;30781;48.154;11.554;2022-08-07T06:10:02;3.70;;;3.53;;
7687;SDS011;30781;48.154;11.554;2022-08-07T06:12:30;2.93;;;2.83;;
7687;SDS011;30781;48.154;11.554;2022-08-07T06:14:58;4.47;;;4.17;;
7687;SDS011;30781;48.154;11.554;2022-08-07T06:17:26;3.00;;;2.80;;
7687;SDS011;30781;48.154;11.554;2022-08-07T06:19:55;3.25;;;2.70;;
7687;SDS011;30781;48.154;11.554;2022-08-07T06:22:24;2.88;;;2.78;;
7687;SDS011;30781;48.154;11.554;2022-08-07T06:24:52;3.00;;;2.80;;
7687;SDS011;30781;48.154;11.554;2022-08-07T06:27:20;3.30;;;3.13;;
7687;SDS011;30781;48.154;11.554;2022-08-07T06:29:48;3.45;;;3.25;;
7687;SDS011;30781;48.154;11.554;2022-08-07T06:32:15;3.38;;;3.08;;
7687;SDS011;30781;48.154;11.554;2022-08-07T06:34:42;2.70;;;2.50;;
7687;SDS011;30781;48.154;11.554;2022-08-07T06:37:11;2.50;;;2.40;;
7687;SDS011;30781;48.154;11.554;2022-08-07T06:39:39;2.30;;;2.22;;
7687;SDS011;30781;48.154;11.554;2022-08-07T06:42:07;2.45;;;2.35;;
7687;SDS011;30781;48.154;11.554;2022-08-07T06:44:37;2.70;;;2.60;;
7687;SDS011;30781;48.154;11.554;2022-08-07T06:47:06;2.25;;;2.15;;
7687;SDS011;30781;48.154;11.554;2022-08-07T06:49:34;2.40;;;2.28;;
7687;SDS011;30781;48.154;11.554;2022-08-07T06:52:01;2.33;;;2.17;;
7687;SDS011;30781;48.154;11.554;2022-08-07T06:54:32;2.40;;;2.28;;
7687;SDS011;30781;48.154;11.554;2022-08-07T06:57:00;2.70;;;2.60;;
7687;SDS011;30781;48.154;11.554;2022-08-07T06:59:30;2.42;;;2.33;;
7687;SDS011;30781;48.154;11.554;2022-08-07T07:01:59;2.65;;;2.55;;
7687;SDS011;30781;48.154;11.554;2022-08-07T07:04:27;2.22;;;2.13;;
7687;SDS011;30781;48.154;11.554;2022-08-07T07:06:56;2.40;;;2.30;;
7687;SDS011;30781;48.154;11.554;2022-08-07T07:09:24;1.98;;;1.98;;
7687;SDS011;30781;48.154;11.554;2022-08-07T07:11:59;2.40;;;2.35;;
7687;SDS011;30781;48.154;11.554;2022-08-07T07:14:33;2.33;;;2.22;;
7687;SDS011;30781;48.154;11.554;2022-08-07T07:17:07;2.28;;;2.17;;
7687;SDS011;30781;48.154;11.554;2022-08-07T07:19:41;2.35;;;2.25;;
7687;SDS011;30781;48.154;11.554;2022-08-07T07:22:12;2.40;;;2.25;;
7687;SDS011;30781;48.154;11.554;2022-08-07T07:24:43;3.05;;;2.75;;
7687;SDS011;30781;48.154;11.554;2022-08-07T07:27:13;2.33;;;2.20;;
7687;SDS011;30781;48.154;11.554;2022-08-07T07:29:44;2.50;;;2.40;;
7687;SDS011;30781;48.154;11.554;2022-08-07T07:32:15;3.13;;;2.97;;
7687;SDS011;30781;48.154;11.554;2022-08-07T07:34:44;2.40;;;2.30;;
7687;SDS011;30781;48.154;11.554;2022-08-07T07:37:14;2.92;;;2.70;;
7687;SDS011;30781;48.154;11.554;2022-08-07T07:39:42;2.83;;;2.63;;
7687;SDS011;30781;48.154;11.554;2022-08-07T07:42:13;2.85;;;2.65;;
7687;SDS011;30781;48.154;11.554;2022-08-07T07:44:42;2.58;;;2.38;;
7687;SDS011;30781;48.154;11.554;2022-08-07T07:47:12;2.58;;;2.47;;
7687;SDS011;30781;48.154;11.554;2022-08-07T07:49:41;2.85;;;2.65;;
7687;SDS011;30781;48.154;11.554;2022-08-07T07:52:10;2.53;;;2.33;;
7687;SDS011;30781;48.154;11.554;2022-08-07T07:54:40;2.50;;;2.40;;
7687;SDS011;30781;48.154;11.554;2022-08-07T07:57:10;2.55;;;2.35;;
7687;SDS011;30781;48.154;11.554;2022-08-07T07:59:41;2.78;;;2.50;;
7687;SDS011;30781;48.154;11.554;2022-08-07T08:02:09;2.83;;;2.40;;
7687;SDS011;30781;48.154;11.554;2022-08-07T08:04:40;1.83;;;1.80;;
7687;SDS011;30781;48.154;11.554;2022-08-07T08:07:09;2.30;;;2.20;;
7687;SDS011;30781;48.154;11.554;2022-08-07T08:09:37;2.10;;;2.00;;
7687;SDS011;30781;48.154;11.554;2022-08-07T08:12:06;2.30;;;2.20;;
7687;SDS011;30781;48.154;11.554;2022-08-07T08:14:36;2.38;;;2.28;;
7687;SDS011;30781;48.154;11.554;2022-08-07T08:17:04;2.55;;;2.28;;
7687;SDS011;30781;48.154;11.554;2022-08-07T08:19:34;2.15;;;2.03;;
7687;SDS011;30781;48.154;11.554;2022-08-07T08:22:04;2.38;;;2.28;;
7687;SDS011;30781;48.154;11.554;2022-08-07T08:24:51;2.60;;;2.40;;
7687;SDS011;30781;48.154;11.554;2022-08-07T08:27:37;3.70;;;2.20;;
7687;SDS011;30781;48.154;11.554;2022-08-07T08:30:09;1.98;;;1.98;;
7687;SDS011;30781;48.154;11.554;2022-08-07T08:32:39;2.05;;;1.95;;
7687;SDS011;30781;48.154;11.554;2022-08-07T08:35:11;2.25;;;2.15;;
7687;SDS011;30781;48.154;11.554;2022-08-07T08:37:50;2.30;;;2.20;;
7687;SDS011;30781;48.154;11.554;2022-08-07T08:40:25;2.13;;;2.03;;
7687;SDS011;30781;48.154;11.554;2022-08-07T08:42:58;2.05;;;1.90;;
7687;SDS011;30781;48.154;11.554;2022-08-07T08:45:34;1.80;;;1.80;;
7687;SDS011;30781;48.154;11.554;2022-08-07T08:48:07;2.95;;;2.53;;
7687;SDS011;30781;48.154;11.554;2022-08-07T08:50:46;2.17;;;2.00;;
7687;SDS011;30781;48.154;11.554;2022-08-07T08:53:18;2.50;;;2.30;;
7687;SDS011;30781;48.154;11.554;2022-08-07T08:55:55;2.35;;;2.25;;
7687;SDS011;30781;48.154;11.554;2022-08-07T08:58:29;2.85;;;2.65;;
7687;SDS011;30781;48.154;11.554;2022-08-07T09:01:04;3.05;;;2.83;;
7687;SDS011;30781;48.154;11.554;2022-08-07T09:03:38;1.65;;;1.60;;
7687;SDS011;30781;48.154;11.554;2022-08-07T09:06:17;2.50;;;2.30;;
7687;SDS011;30781;48.154;11.554;2022-08-07T09:08:55;2.42;;;2.22;;
7687;SDS011;30781;48.154;11.554;2022-08-07T09:11:34;2.08;;;2.00;;
7687;SDS011;30781;48.154;11.554;2022-08-07T09:14:07;3.13;;;2.30;;
7687;SDS011;30781;48.154;11.554;2022-08-07T09:16:43;2.28;;;2.17;;
7687;SDS011;30781;48.154;11.554;2022-08-07T09:19:21;2.10;;;2.00;;
7687;SDS011;30781;48.154;11.554;2022-08-07T09:24:45;2.88;;;2.28;;
7687;SDS011;30781;48.154;11.554;2022-08-07T09:27:27;2.30;;;2.20;;
7687;SDS011;30781;48.154;11.554;2022-08-07T09:30:08;2.20;;;2.03;;
7687;SDS011;30781;48.154;11.554;2022-08-07T09:35:38;2.50;;;2.30;;
7687;SDS011;30781;48.154;11.554;2022-08-07T09:38:13;2.33;;;2.22;;
7687;SDS011;30781;48.154;11.554;2022-08-07T09:40:59;1.92;;;1.90;;
7687;SDS011;30781;48.154;11.554;2022-08-07T09:43:36;2.40;;;2.30;;
7687;SDS011;30781;48.154;11.554;2022-08-07T09:46:22;2.22;;;2.10;;
7687;SDS011;30781;48.154;11.554;2022-08-07T09:49:00;2.03;;;2.00;;
7687;SDS011;30781;48.154;11.554;2022-08-07T09:51:55;2.40;;;2.30;;
7687;SDS011;30781;48.154;11.554;2022-08-07T09:54:28;3.13;;;2.25;;
7687;SDS011;30781;48.154;11.554;2022-08-07T09:57:08;2.05;;;1.88;;
7687;SDS011;30781;48.154;11.554;2022-08-07T10:00:03;2.30;;;2.20;;
7687;SDS011;30781;48.154;11.554;2022-08-07T10:02:38;2.15;;;2.05;;
7687;SDS011;30781;48.154;11.554;2022-08-07T10:11:43;2.05;;;1.95;;
7687;SDS011;30781;48.154;11.554;2022-08-07T10:14:36;2.53;;;2.33;;
7687;SDS011;30781;48.154;11.554;2022-08-07T10:17:33;2.13;;;2.03;;
7687;SDS011;30781;48.154;11.554;2022-08-07T10:20:23;2.60;;;2.40;;
7687;SDS011;30781;48.154;11.554;2022-08-07T10:23:06;2.28;;;2.17;;
7687;SDS011;30781;48.154;11.554;2022-08-07T10:26:06;1.98;;;1.88;;
7687;SDS011;30781;48.154;11.554;2022-08-07T10:28:57;2.30;;;2.20;;
7687;SDS011;30781;48.154;11.554;2022-08-07T10:34:30;2.40;;;2.10;;
7687;SDS011;30781;48.154;11.554;2022-08-07T10:37:08;2.45;;;2.33;;
7687;SDS011;30781;48.154;11.554;2022-08-07T10:39:51;2.40;;;2.20;;
7687;SDS011;30781;48.154;11.554;2022-08-07T10:42:31;2.38;;;2.28;;
7687;SDS011;30781;48.154;11.554;2022-08-07T10:45:17;2.58;;;2.47;;
7687;SDS011;30781;48.154;11.554;2022-08-07T10:47:53;2.20;;;2.10;;
7687;SDS011;30781;48.154;11.554;2022-08-07T10:50:30;2.22;;;2.13;;
7687;SDS011;30781;48.154;11.554;2022-08-07T10:53:08;2.38;;;2.28;;
7687;SDS011;30781;48.154;11.554;2022-08-07T10:55:43;2.17;;;2.08;;
7687;SDS011;30781;48.154;11.554;2022-08-07T10:58:16;2.53;;;2.30;;
7687;SDS011;30781;48.154;11.554;2022-08-07T11:00:54;2.70;;;2.20;;
7687;SDS011;30781;48.154;11.554;2022-08-07T11:03:33;2.35;;;2.15;;
7687;SDS011;30781;48.154;11.554;2022-08-07T11:06:07;2.47;;;2.28;;
7687;SDS011;30781;48.154;11.554;2022-08-07T11:08:42;3.55;;;2.28;;
7687;SDS011;30781;48.154;11.554;2022-08-07T11:11:21;2.20;;;2.00;;
7687;SDS011;30781;48.154;11.554;2022-08-07T11:13:55;2.72;;;2.53;;
7687;SDS011;30781;48.154;11.554;2022-08-07T11:16:26;2.60;;;2.40;;
7687;SDS011;30781;48.154;11.554;2022-08-07T11:18:57;2.67;;;2.25;;
7687;SDS011;30781;48.154;11.554;2022-08-07T11:21:34;2.60;;;2.50;;
7687;SDS011;30781;48.154;11.554;2022-08-07T11:24:10;2.40;;;2.20;;
7687;SDS011;30781;48.154;11.554;2022-08-07T11:26:48;2.30;;;2.10;;
7687;SDS011;30781;48.154;11.554;2022-08-07T11:29:25;2.47;;;2.38;;
7687;SDS011;30781;48.154;11.554;2022-08-07T11:32:03;2.20;;;2.10;;
7687;SDS011;30781;48.154;11.554;2022-08-07T11:34:35;2.45;;;2.35;;
7687;SDS011;30781;48.154;11.554;2022-08-07T11:37:12;2.17;;;2.08;;
7687;SDS011;30781;48.154;11.554;2022-08-07T11:39:59;1.98;;;1.88;;
7687;SDS011;30781;48.154;11.554;2022-08-07T11:42:40;2.10;;;2.10;;
7687;SDS011;30781;48.154;11.554;2022-08-07T11:45:19;2.25;;;2.15;;
7687;SDS011;30781;48.154;11.554;2022-08-07T11:47:56;2.58;;;2.42;;
7687;SDS011;30781;48.154;11.554;2022-08-07T11:50:47;2.55;;;2.35;;
7687;SDS011;30781;48.154;11.554;2022-08-07T11:53:28;2.22;;;2.10;;
7687;SDS011;30781;48.154;11.554;2022-08-07T11:56:09;2.38;;;2.28;;
7687;SDS011;30781;48.154;11.554;2022-08-07T11:58:52;4.22;;;2.67;;
7687;SDS011;30781;48.154;11.554;2022-08-07T12:01:30;2.50;;;2.30;;
7687;SDS011;30781;48.154;11.554;2022-08-07T12:04:12;2.47;;;2.38;;
7687;SDS011;30781;48.154;11.554;2022-08-07T12:06:55;2.50;;;2.30;;
7687;SDS011;30781;48.154;11.554;2022-08-07T12:09:30;1.92;;;1.90;;
7687;SDS011;30781;48.154;11.554;2022-08-07T12:12:03;2.45;;;2.35;;
7687;SDS011;30781;48.154;11.554;2022-08-07T12:14:37;2.53;;;2.20;;
7687;SDS011;30781;48.154;11.554;2022-08-07T12:17:13;2.50;;;2.30;;
7687;SDS011;30781;48.154;11.554;2022-08-07T12:19:45;2.30;;;2.20;;
7687;SDS011;30781;48.154;11.554;2022-08-07T12:22:21;2.25;;;2.15;;
7687;SDS011;30781;48.154;11.554;2022-08-07T12:24:56;2.20;;;2.10;;
7687;SDS011;30781;48.154;11.554;2022-08-07T12:27:48;2.80;;;2.60;;
7687;SDS011;30781;48.154;11.554;2022-08-07T12:30:22;2.20;;;2.10;;
7687;SDS011;30781;48.154;11.554;2022-08-07T12:32:53;3.13;;;2.70;;
7687;SDS011;30781;48.154;11.554;2022-08-07T12:35:27;2.75;;;2.40;;
7687;SDS011;30781;48.154;11.554;2022-08-07T12:37:56;2.17;;;1.92;;
7687;SDS011;30781;48.154;11.554;2022-08-07T12:40:26;2.38;;;2.28;;
7687;SDS011;30781;48.154;11.554;2022-08-07T12:42:58;2.40;;;2.30;;
7687;SDS011;30781;48.154;11.554;2022-08-07T12:45:30;2.30;;;2.20;;
7687;SDS011;30781;48.154;11.554;2022-08-07T12:48:03;2.20;;;2.10;;
7687;SDS011;30781;48.154;11.554;2022-08-07T12:50:40;2.20;;;2.10;;
7687;SDS011;30781;48.154;11.554;2022-08-07T12:53:17;2.88;;;2.70;;
7687;SDS011;30781;48.154;11.554;2022-08-07T12:55:51;2.15;;;2.00;;
7687;SDS011;30781;48.154;11.554;2022-08-07T12:58:25;2.35;;;2.15;;
7687;SDS011;30781;48.154;11.554;2022-08-07T13:01:02;1.90;;;1.80;;
7687;SDS011;30781;48.154;11.554;2022-08-07T13:03:47;2.53;;;2.42;;
7687;SDS011;30781;48.154;11.554;2022-08-07T13:06:29;2.60;;;2.47;;
7687;SDS011;30781;48.154;11.554;2022-08-07T13:09:16;2.50;;;2.40;;
7687;SDS011;30781;48.154;11.554;2022-08-07T13:11:56;1.98;;;1.95;;
7687;SDS011;30781;48.154;11.554;2022-08-07T13:14:33;2.35;;;2.25;;
7687;SDS011;30781;48.154;11.554;2022-08-07T13:17:11;2.30;;;2.10;;
7687;SDS011;30781;48.154;11.554;2022-08-07T13:19:45;2.35;;;2.25;;
7687;SDS011;30781;48.154;11.554;2022-08-07T13:22:18;2.10;;;2.00;;
7687;SDS011;30781;48.154;11.554;2022-08-07T13:24:55;2.35;;;2.20;;
7687;SDS011;30781;48.154;11.554;2022-08-07T13:27:29;2.42;;;2.20;;
7687;SDS011;30781;48.154;11.554;2022-08-07T13:30:02;2.47;;;2.25;;
7687;SDS011;30781;48.154;11.554;2022-08-07T13:32:34;1.98;;;1.80;;
7687;SDS011;30781;48.154;11.554;2022-08-07T13:35:09;2.10;;;2.00;;
7687;SDS011;30781;48.154;11.554;2022-08-07T13:37:44;2.30;;;2.20;;
7687;SDS011;30781;48.154;11.554;2022-08-07T13:40:19;2.30;;;2.00;;
7687;SDS011;30781;48.154;11.554;2022-08-07T13:42:53;2.20;;;2.10;;
7687;SDS011;30781;48.154;11.554;2022-08-07T13:45:23;1.92;;;1.83;;
7687;SDS011;30781;48.154;11.554;2022-08-07T13:47:56;1.98;;;1.98;;
7687;SDS011;30781;48.154;11.554;2022-08-07T13:50:24;2.00;;;1.90;;
7687;SDS011;30781;48.154;11.554;2022-08-07T13:52:54;2.00;;;1.83;;
7687;SDS011;30781;48.154;11.554;2022-08-07T13:55:23;2.00;;;1.90;;
7687;SDS011;30781;48.154;11.554;2022-08-07T13:57:57;2.00;;;1.90;;
7687;SDS011;30781;48.154;11.554;2022-08-07T14:00:52;1.67;;;1.67;;
7687;SDS011;30781;48.154;11.554;2022-08-07T14:03:23;2.00;;;1.90;;
7687;SDS011;30781;48.154;11.554;2022-08-07T14:05:53;2.17;;;2.08;;
7687;SDS011;30781;48.154;11.554;2022-08-07T14:08:22;1.70;;;1.58;;
7687;SDS011;30781;48.154;11.554;2022-08-07T14:10:50;1.63;;;1.63;;
7687;SDS011;30781;48.154;11.554;2022-08-07T14:13:21;3.08;;;2.03;;
7687;SDS011;30781;48.154;11.554;2022-08-07T14:15:57;1.73;;;1.73;;
7687;SDS011;30781;48.154;11.554;2022-08-07T14:18:30;2.10;;;2.00;;
7687;SDS011;30781;48.154;11.554;2022-08-07T14:21:06;2.00;;;1.95;;
7687;SDS011;30781;48.154;11.554;2022-08-07T14:23:37;2.33;;;2.13;;
7687;SDS011;30781;48.154;11.554;2022-08-07T14:26:09;2.30;;;2.20;;
7687;SDS011;30781;48.154;11.554;2022-08-07T14:28:39;2.47;;;2.38;;
7687;SDS011;30781;48.154;11.554;2022-08-07T14:31:08;2.20;;;2.03;;
7687;SDS011;30781;48.154;11.554;2022-08-07T14:33:39;4.40;;;2.42;;
7687;SDS011;30781;48.154;11.554;2022-08-07T14:36:08;2.20;;;2.10;;
7687;SDS011;30781;48.154;11.554;2022-08-07T14:38:37;2.05;;;1.95;;
7687;SDS011;30781;48.154;11.554;2022-08-07T14:41:07;2.50;;;1.90;;
7687;SDS011;30781;48.154;11.554;2022-08-07T14:43:39;2.25;;;2.15;;
7687;SDS011;30781;48.154;11.554;2022-08-07T14:46:08;2.13;;;2.13;;
7687;SDS011;30781;48.154;11.554;2022-08-07T14:48:39;3.67;;;3.35;;
7687;SDS011;30781;48.154;11.554;2022-08-07T14:51:08;2.20;;;2.10;;
7687;SDS011;30781;48.154;11.554;2022-08-07T14:53:38;2.30;;;2.20;;
7687;SDS011;30781;48.154;11.554;2022-08-07T14:56:09;2.33;;;2.10;;
7687;SDS011;30781;48.154;11.554;2022-08-07T14:58:39;2.30;;;2.17;;
7687;SDS011;30781;48.154;11.554;2022-08-07T15:01:09;2.10;;;2.00;;
7687;SDS011;30781;48.154;11.554;2022-08-07T15:03:43;2.05;;;1.92;;
7687;SDS011;30781;48.154;11.554;2022-08-07T15:06:12;2.30;;;2.20;;
7687;SDS011;30781;48.154;11.554;2022-08-07T15:08:44;2.20;;;2.10;;
7687;SDS011;30781;48.154;11.554;2022-08-07T15:11:14;3.70;;;2.22;;
7687;SDS011;30781;48.154;11.554;2022-08-07T15:13:47;2.50;;;2.30;;
7687;SDS011;30781;48.154;11.554;2022-08-07T15:16:18;2.05;;;1.98;;
7687;SDS011;30781;48.154;11.554;2022-08-07T15:18:53;2.22;;;2.13;;
7687;SDS011;30781;48.154;11.554;2022-08-07T15:21:25;2.97;;;2.78;;
7687;SDS011;30781;48.154;11.554;2022-08-07T15:23:56;2.15;;;2.05;;
7687;SDS011;30781;48.154;11.554;2022-08-07T15:26:34;2.30;;;2.20;;
7687;SDS011;30781;48.154;11.554;2022-08-07T15:29:07;3.22;;;2.70;;
7687;SDS011;30781;48.154;11.554;2022-08-07T15:31:36;2.67;;;2.47;;